createdAt,value
2022-09-09T00:01:32.855Z,0.50
2022-09-09T00:04:12.476Z,0.40
2022-09-09T00:06:48.143Z,0.57
2022-09-09T00:09:21.045Z,0.50
2022-09-09T00:11:54.891Z,0.52
2022-09-09T00:14:32.128Z,0.55
2022-09-09T00:17:05.301Z,0.60
2022-09-09T00:19:41.353Z,0.50
2022-09-09T00:22:18.553Z,0.50
2022-09-09T00:24:54.530Z,0.50
2022-09-09T00:27:31.697Z,0.38
2022-09-09T00:30:15.079Z,0.45
2022-09-09T00:32:45.646Z,0.55
2022-09-09T00:35:21.061Z,0.40
2022-09-09T00:37:53.168Z,0.50
2022-09-09T00:40:31.704Z,0.57
2022-09-09T00:43:22.205Z,0.57
2022-09-09T00:46:26.564Z,0.57
2022-09-09T00:49:04.693Z,0.60
2022-09-09T00:51:47.968Z,0.40
2022-09-09T00:54:30.283Z,0.30
2022-09-09T00:57:14.786Z,0.40
2022-09-09T00:59:51.399Z,0.43
2022-09-09T01:02:32.159Z,0.50
2022-09-09T01:05:09.825Z,0.70
2022-09-09T01:07:39.039Z,0.60
2022-09-09T01:10:18.672Z,0.68
2022-09-09T01:12:51.211Z,0.40
2022-09-09T01:15:28.030Z,0.55
2022-09-09T01:18:03.561Z,0.60
2022-09-09T01:20:42.546Z,0.50
2022-09-09T01:23:28.181Z,0.60
2022-09-09T01:26:32.655Z,0.50
2022-09-09T01:29:09.304Z,0.75
2022-09-09T01:31:43.400Z,0.60
2022-09-09T01:34:14.731Z,0.50
2022-09-09T01:36:49.536Z,0.50
2022-09-09T01:39:19.227Z,0.52
2022-09-09T01:41:53.699Z,0.52
2022-09-09T01:44:23.205Z,0.52
2022-09-09T01:46:52.348Z,0.60
2022-09-09T01:49:23.609Z,0.47
2022-09-09T01:51:56.342Z,0.47
2022-09-09T01:54:37.307Z,0.30
2022-09-09T01:57:20.357Z,0.75
2022-09-09T02:00:01.877Z,0.40
2022-09-09T02:02:38.822Z,0.57
2022-09-09T02:05:25.566Z,0.50
2022-09-09T02:08:03.046Z,0.45
2022-09-09T02:10:47.205Z,0.50
2022-09-09T02:13:27.198Z,0.50
2022-09-09T02:16:03.034Z,0.60
2022-09-09T02:18:37.888Z,0.70
2022-09-09T02:21:09.620Z,0.43
2022-09-09T02:23:40.931Z,0.50
2022-09-09T02:26:16.031Z,0.43
2022-09-09T02:28:47.074Z,0.55
2022-09-09T02:31:19.900Z,0.50
2022-09-09T02:33:54.968Z,0.40
2022-09-09T02:36:27.800Z,0.68
2022-09-09T02:38:57.830Z,0.45
2022-09-09T02:41:34.808Z,0.40
2022-09-09T02:44:08.413Z,0.50
2022-09-09T02:46:54.645Z,0.47
2022-09-09T02:49:31.018Z,0.47
2022-09-09T02:52:06.861Z,0.50
2022-09-09T02:54:40.871Z,0.50
2022-09-09T02:57:17.285Z,0.40
2022-09-09T02:59:53.156Z,0.50
2022-09-09T03:02:22.414Z,0.45
2022-09-09T03:04:56.967Z,0.50
2022-09-09T03:07:26.273Z,0.50
2022-09-09T03:09:56.105Z,0.50
2022-09-09T03:12:28.509Z,0.60
2022-09-09T03:14:59.155Z,0.50
2022-09-09T03:17:29.206Z,0.40
2022-09-09T03:20:00.160Z,0.40
2022-09-09T03:22:29.627Z,0.50
2022-09-09T03:25:01.406Z,0.30
2022-09-09T03:27:31.143Z,0.50
2022-09-09T03:30:04.673Z,0.60
2022-09-09T03:32:33.802Z,0.40
2022-09-09T03:35:03.543Z,0.40
2022-09-09T03:37:33.336Z,0.40
2022-09-09T03:40:02.582Z,0.50
2022-09-09T03:42:32.621Z,0.50
2022-09-09T03:45:05.558Z,0.40
2022-09-09T03:47:34.884Z,0.50
2022-09-09T03:50:10.598Z,0.40
2022-09-09T03:52:43.891Z,0.30
2022-09-09T03:55:19.343Z,0.40
2022-09-09T03:57:48.617Z,0.43
2022-09-09T04:00:19.877Z,0.50
2022-09-09T04:02:55.269Z,0.50
2022-09-09T04:05:24.577Z,0.50
2022-09-09T04:07:54.088Z,0.50
2022-09-09T04:10:24.298Z,0.60
2022-09-09T04:12:56.460Z,0.52
2022-09-09T04:15:27.089Z,0.50
2022-09-09T04:17:56.600Z,0.70
2022-09-09T04:20:26.479Z,0.30
2022-09-09T04:22:55.703Z,0.60
2022-09-09T04:25:25.004Z,0.60
2022-09-09T04:27:57.407Z,0.73
2022-09-09T04:30:28.532Z,0.57
2022-09-09T04:32:58.711Z,1.13
2022-09-09T04:35:28.348Z,0.50
2022-09-09T04:37:58.278Z,0.90
2022-09-09T04:40:29.578Z,0.70
2022-09-09T04:43:00.510Z,1.05
2022-09-09T04:45:31.584Z,0.70
2022-09-09T04:48:01.547Z,0.85
2022-09-09T04:50:30.806Z,0.70
2022-09-09T04:53:03.495Z,1.10
2022-09-09T04:55:33.251Z,1.35
2022-09-09T04:58:06.491Z,1.08
2022-09-09T05:00:37.904Z,0.70
2022-09-09T05:03:10.479Z,0.57
2022-09-09T05:05:39.828Z,0.90
2022-09-09T05:08:11.195Z,0.70
2022-09-09T05:10:43.031Z,0.90
2022-09-09T05:13:12.388Z,0.60
2022-09-09T05:15:44.333Z,1.10
2022-09-09T05:18:13.731Z,0.90
2022-09-09T05:20:44.056Z,0.93
2022-09-09T05:23:14.511Z,0.57
2022-09-09T05:25:44.649Z,0.70
2022-09-09T05:28:13.755Z,0.80
2022-09-09T05:30:44.908Z,1.08
2022-09-09T05:33:14.141Z,0.80
2022-09-09T05:35:43.312Z,0.73
2022-09-09T05:38:12.504Z,0.77
2022-09-09T05:40:43.558Z,0.55
2022-09-09T05:43:13.008Z,0.60
2022-09-09T05:45:44.194Z,0.68
2022-09-09T05:48:13.657Z,0.60
2022-09-09T05:50:43.747Z,0.60
2022-09-09T05:53:13.215Z,0.60
2022-09-09T05:55:43.538Z,0.50
2022-09-09T05:58:13.351Z,0.60
2022-09-09T06:00:42.569Z,0.60
2022-09-09T06:03:14.410Z,0.65
2022-09-09T06:05:43.617Z,0.60
2022-09-09T06:08:12.739Z,0.65
2022-09-09T06:10:41.920Z,0.70
2022-09-09T06:13:11.152Z,0.50
2022-09-09T06:15:41.852Z,0.68
2022-09-09T06:18:11.268Z,0.57
2022-09-09T06:20:41.964Z,0.60
2022-09-09T06:23:11.578Z,0.70
2022-09-09T06:25:41.873Z,0.60
2022-09-09T06:28:11.620Z,0.55
2022-09-09T06:30:41.170Z,0.70
2022-09-09T06:33:10.433Z,0.52
2022-09-09T06:35:41.285Z,0.55
2022-09-09T06:38:10.708Z,0.85
2022-09-09T06:40:40.992Z,0.55
2022-09-09T06:43:11.095Z,0.65
2022-09-09T06:45:44.147Z,0.68
2022-09-09T06:48:13.289Z,0.60
2022-09-09T06:50:44.135Z,0.60
2022-09-09T06:53:13.328Z,0.55
2022-09-09T06:55:45.399Z,0.50
2022-09-09T06:58:15.564Z,0.50
2022-09-09T07:00:44.796Z,0.47
2022-09-09T07:03:14.124Z,0.63
2022-09-09T07:05:45.405Z,0.70
2022-09-09T07:08:15.588Z,0.57
2022-09-09T07:10:45.356Z,0.50
2022-09-09T07:13:16.739Z,0.57
2022-09-09T07:15:46.190Z,0.50
2022-09-09T07:18:15.389Z,0.40
2022-09-09T07:20:54.893Z,0.57
2022-09-09T07:23:24.197Z,0.50
2022-09-09T07:25:54.103Z,0.40
2022-09-09T07:28:24.309Z,0.60
2022-09-09T07:30:57.428Z,0.50
2022-09-09T07:33:27.752Z,0.75
2022-09-09T07:36:06.894Z,0.47
2022-09-09T07:38:41.885Z,0.57
2022-09-09T07:41:13.162Z,0.60
2022-09-09T07:43:43.311Z,0.50
2022-09-09T07:46:14.334Z,0.70
2022-09-09T07:48:48.207Z,0.40
2022-09-09T07:51:20.790Z,0.60
2022-09-09T07:53:54.472Z,0.50
2022-09-09T07:56:24.308Z,0.50
2022-09-09T07:58:56.059Z,0.70
2022-09-09T08:01:27.801Z,0.60
2022-09-09T08:04:00.420Z,0.43
2022-09-09T08:06:32.215Z,0.57
2022-09-09T08:09:01.960Z,0.47
2022-09-09T08:11:38.563Z,0.50
2022-09-09T08:14:09.858Z,0.57
2022-09-09T08:16:41.490Z,0.60
2022-09-09T08:19:11.054Z,0.65
2022-09-09T08:21:43.668Z,0.40
2022-09-09T08:24:16.293Z,0.40
2022-09-09T08:26:50.755Z,0.50
2022-09-09T08:29:24.541Z,0.63
2022-09-09T08:31:58.352Z,0.50
2022-09-09T08:34:29.317Z,0.60
2022-09-09T08:37:01.938Z,0.55
2022-09-09T08:39:37.556Z,0.50
2022-09-09T08:42:40.749Z,0.60
2022-09-09T08:45:23.407Z,0.50
2022-09-09T08:48:05.436Z,0.50
2022-09-09T08:50:39.812Z,0.63
2022-09-09T08:53:22.912Z,0.50
2022-09-09T08:55:56.561Z,0.50
2022-09-09T08:58:49.994Z,0.60
2022-09-09T09:01:47.624Z,0.50
2022-09-09T09:07:32.880Z,0.55
2022-09-09T09:10:37.427Z,0.50
2022-09-09T09:13:06.232Z,0.40
2022-09-09T09:15:41.158Z,0.50
2022-09-09T09:18:17.168Z,0.60
2022-09-09T09:21:00.831Z,0.50
2022-09-09T09:23:39.389Z,0.60
2022-09-09T09:26:13.082Z,0.70
2022-09-09T09:28:43.455Z,0.60
2022-09-09T09:31:20.590Z,0.70
2022-09-09T09:33:54.235Z,0.40
2022-09-09T09:36:40.426Z,0.50
2022-09-09T09:42:15.528Z,0.50
2022-09-09T09:44:49.035Z,0.43
2022-09-09T09:47:24.528Z,0.30
2022-09-09T09:50:24.221Z,0.35
2022-09-09T09:53:00.476Z,0.52
2022-09-09T09:55:34.719Z,0.50
2022-09-09T09:58:07.339Z,0.40
2022-09-09T10:00:38.239Z,0.57
2022-09-09T10:03:26.998Z,0.50
2022-09-09T10:05:58.088Z,0.52
2022-09-09T10:08:28.546Z,0.73
2022-09-09T10:11:24.729Z,0.50
2022-09-09T10:14:05.957Z,0.40
2022-09-09T10:16:49.630Z,0.50
2022-09-09T10:19:28.811Z,0.40
2022-09-09T10:22:14.246Z,0.30
2022-09-09T10:25:02.740Z,0.50
2022-09-09T10:27:42.110Z,0.60
2022-09-09T10:30:20.225Z,0.50
2022-09-09T10:32:53.384Z,0.40
2022-09-09T10:35:32.951Z,0.40
2022-09-09T10:38:16.250Z,0.40
2022-09-09T10:41:12.113Z,0.60
2022-09-09T10:44:12.373Z,0.50
2022-09-09T10:46:55.168Z,0.50
2022-09-09T10:49:40.353Z,0.55
2022-09-09T10:52:17.669Z,0.60
2022-09-09T10:54:58.385Z,0.45
2022-09-09T10:57:33.708Z,0.50
2022-09-09T11:00:07.318Z,0.68
2022-09-09T11:02:40.580Z,0.80
2022-09-09T11:05:17.224Z,0.60
2022-09-09T11:07:53.792Z,0.90
2022-09-09T11:10:28.548Z,0.70
2022-09-09T11:13:02.108Z,0.77
2022-09-09T11:15:38.649Z,0.98
2022-09-09T11:18:14.231Z,0.70
2022-09-09T11:20:45.034Z,0.80
2022-09-09T11:23:18.205Z,0.93
2022-09-09T11:25:53.676Z,0.88
2022-09-09T11:28:38.948Z,0.60
2022-09-09T11:31:20.972Z,0.93
2022-09-09T11:34:10.842Z,1.40
2022-09-09T11:37:03.211Z,1.35
2022-09-09T11:39:52.368Z,0.98
2022-09-09T11:42:25.624Z,1.10
2022-09-09T11:44:56.190Z,0.88
2022-09-09T11:47:31.180Z,1.08
2022-09-09T11:50:14.850Z,1.23
2022-09-09T11:52:47.203Z,1.20
2022-09-09T11:55:30.870Z,1.20
2022-09-09T11:58:01.926Z,0.95
2022-09-09T12:00:38.198Z,1.00
2022-09-09T12:03:08.212Z,1.10
2022-09-09T12:05:45.071Z,1.00
2022-09-09T12:08:21.396Z,0.80
2022-09-09T12:10:57.831Z,0.90
2022-09-09T12:13:29.525Z,0.70
2022-09-09T12:16:00.382Z,0.77
2022-09-09T12:18:37.970Z,0.88
2022-09-09T12:21:19.311Z,0.80
2022-09-09T12:23:53.019Z,0.60
2022-09-09T12:26:32.381Z,0.60
2022-09-09T12:29:13.175Z,0.57
2022-09-09T12:31:49.056Z,0.85
2022-09-09T12:34:20.225Z,0.60
2022-09-09T12:36:57.545Z,0.65
2022-09-09T12:39:34.628Z,0.80
2022-09-09T12:42:05.326Z,0.88
2022-09-09T12:44:34.642Z,0.80
2022-09-09T12:47:05.999Z,0.63
2022-09-09T12:49:39.497Z,0.68
2022-09-09T12:52:17.237Z,0.82
2022-09-09T12:54:49.011Z,0.90
2022-09-09T12:57:18.522Z,0.70
2022-09-09T12:59:49.214Z,0.90
2022-09-09T13:02:24.352Z,0.90
2022-09-09T13:04:54.110Z,0.73
2022-09-09T13:07:26.529Z,0.80
2022-09-09T13:09:55.767Z,0.95
2022-09-09T13:12:26.075Z,1.00
2022-09-09T13:14:58.409Z,0.95
2022-09-09T13:17:30.212Z,1.02
2022-09-09T13:19:59.895Z,0.70
2022-09-09T13:22:34.225Z,0.90
2022-09-09T13:25:06.869Z,0.93
2022-09-09T13:27:40.005Z,0.88
2022-09-09T13:30:25.165Z,0.88
2022-09-09T13:33:06.120Z,0.80
2022-09-09T13:35:36.766Z,0.90
2022-09-09T13:38:15.795Z,0.80
2022-09-09T13:40:58.739Z,0.70
2022-09-09T13:43:29.125Z,0.60
2022-09-09T13:46:00.258Z,0.77
2022-09-09T13:48:31.071Z,0.60
2022-09-09T13:51:02.924Z,0.70
2022-09-09T13:53:34.157Z,0.82
2022-09-09T13:56:03.802Z,0.50
2022-09-09T13:58:32.893Z,0.73
2022-09-09T14:01:02.322Z,0.77
2022-09-09T14:03:31.539Z,0.82
2022-09-09T14:06:00.733Z,0.55
2022-09-09T14:08:38.446Z,0.60
2022-09-09T14:11:13.796Z,0.80
2022-09-09T14:13:45.551Z,0.80
2022-09-09T14:16:16.266Z,0.63
2022-09-09T14:18:46.767Z,0.80
2022-09-09T14:21:20.055Z,0.70
2022-09-09T14:23:52.333Z,0.80
2022-09-09T14:26:24.651Z,0.68
2022-09-09T14:28:55.724Z,0.60
2022-09-09T14:31:26.097Z,0.90
2022-09-09T14:33:55.679Z,0.70
2022-09-09T14:36:25.348Z,0.60
2022-09-09T14:38:54.631Z,0.60
2022-09-09T14:41:26.289Z,0.60
2022-09-09T14:43:55.637Z,1.05
2022-09-09T14:46:25.301Z,0.57
2022-09-09T14:51:29.390Z,0.70
2022-09-09T14:54:00.223Z,0.63
2022-09-09T14:56:32.837Z,0.52
2022-09-09T14:59:03.165Z,0.60
2022-09-09T15:01:35.099Z,0.50
2022-09-09T15:04:06.907Z,0.70
2022-09-09T15:06:39.584Z,0.50
2022-09-09T15:09:09.402Z,0.68
2022-09-09T15:11:40.826Z,0.60
2022-09-09T15:14:11.514Z,0.60
2022-09-09T15:16:41.944Z,0.68
2022-09-09T15:19:11.751Z,0.40
2022-09-09T15:21:41.869Z,0.63
2022-09-09T15:24:11.231Z,0.50
2022-09-09T15:26:41.902Z,0.60
2022-09-09T15:29:13.584Z,0.70
2022-09-09T15:31:45.977Z,0.55
2022-09-09T15:34:16.709Z,0.60
2022-09-09T15:36:47.960Z,0.60
2022-09-09T15:39:19.606Z,0.50
2022-09-09T15:41:51.171Z,0.60
2022-09-09T15:44:21.666Z,0.43
2022-09-09T15:46:52.539Z,0.60
2022-09-09T15:49:26.121Z,0.50
2022-09-09T15:51:56.943Z,0.70
2022-09-09T15:54:29.028Z,0.60
2022-09-09T15:57:02.224Z,0.50
2022-09-09T15:59:33.390Z,0.80
2022-09-09T16:02:03.443Z,0.50
2022-09-09T16:04:33.074Z,0.50
2022-09-09T16:07:03.708Z,0.55
2022-09-09T16:09:34.612Z,0.50
2022-09-09T16:12:10.756Z,0.60
2022-09-09T16:14:39.933Z,0.60
2022-09-09T16:17:09.515Z,0.47
2022-09-09T16:19:38.830Z,0.50
2022-09-09T16:22:08.127Z,0.70
2022-09-09T16:24:37.265Z,0.43
2022-09-09T16:27:07.924Z,0.60
2022-09-09T16:29:37.261Z,0.52
2022-09-09T16:32:07.240Z,0.63
2022-09-09T16:34:36.344Z,0.80
2022-09-09T16:37:05.997Z,0.60
2022-09-09T16:39:35.429Z,0.68
2022-09-09T16:42:05.833Z,0.65
2022-09-09T16:44:36.834Z,0.82
2022-09-09T16:47:06.547Z,0.50
2022-09-09T16:49:38.471Z,0.60
2022-09-09T16:52:07.642Z,0.70
2022-09-09T16:54:36.912Z,0.50
2022-09-09T16:57:06.300Z,0.75
2022-09-09T16:59:37.148Z,0.70
2022-09-09T17:02:06.400Z,0.60
2022-09-09T17:04:35.716Z,0.60
2022-09-09T17:07:05.089Z,0.77
2022-09-09T17:09:34.322Z,0.70
2022-09-09T17:12:03.779Z,0.50
2022-09-09T17:14:33.363Z,0.50
2022-09-09T17:17:25.091Z,0.70
2022-09-09T17:19:54.813Z,0.60
2022-09-09T17:22:24.249Z,0.50
2022-09-09T17:24:53.300Z,0.60
2022-09-09T17:27:22.543Z,0.70
2022-09-09T17:29:52.350Z,0.70
2022-09-09T17:32:22.851Z,0.60
2022-09-09T17:34:52.076Z,0.80
2022-09-09T17:37:21.241Z,0.60
2022-09-09T17:39:51.006Z,0.65
2022-09-09T17:42:20.608Z,0.52
2022-09-09T17:44:49.702Z,0.70
2022-09-09T17:47:21.435Z,0.90
2022-09-09T17:49:53.702Z,0.55
2022-09-09T17:52:24.165Z,0.70
2022-09-09T17:54:57.623Z,0.80
2022-09-09T17:57:27.085Z,0.60
2022-09-09T17:59:56.216Z,0.50
2022-09-09T18:02:25.425Z,0.57
2022-09-09T18:04:55.947Z,0.75
2022-09-09T18:07:25.788Z,0.75
2022-09-09T18:09:55.012Z,0.68
2022-09-09T18:12:24.214Z,0.60
2022-09-09T18:14:54.277Z,0.70
2022-09-09T18:17:23.554Z,0.80
2022-09-09T18:19:52.731Z,0.55
2022-09-09T18:22:23.694Z,0.60
2022-09-09T18:24:53.095Z,0.60
2022-09-09T18:27:22.183Z,0.55
2022-09-09T18:29:51.338Z,0.57
2022-09-09T18:32:20.487Z,0.50
2022-09-09T18:34:55.331Z,0.40
2022-09-09T18:37:26.393Z,0.60
2022-09-09T18:39:55.710Z,0.60
2022-09-09T18:42:26.741Z,0.57
2022-09-09T18:44:55.996Z,0.52
2022-09-09T18:47:25.709Z,0.52
2022-09-09T18:49:55.615Z,0.57
2022-09-09T18:52:26.463Z,0.60
2022-09-09T18:54:55.559Z,0.47
2022-09-09T18:57:25.571Z,0.70
2022-09-09T18:59:55.776Z,0.70
2022-09-09T19:02:25.025Z,0.63
2022-09-09T19:04:54.155Z,0.70
2022-09-09T19:07:23.353Z,0.80
2022-09-09T19:09:53.822Z,0.50
2022-09-09T19:12:23.420Z,0.80
2022-09-09T19:14:52.792Z,0.70
2022-09-09T19:17:22.400Z,0.50
2022-09-09T19:19:51.765Z,0.55
2022-09-09T19:22:20.958Z,0.90
2022-09-09T19:24:50.295Z,0.55
2022-09-09T19:27:23.148Z,0.60
2022-09-09T19:29:56.764Z,0.50
2022-09-09T19:35:16.680Z,0.70
2022-09-09T19:37:47.399Z,0.70
2022-09-09T19:40:17.647Z,0.60
2022-09-09T19:42:48.616Z,0.40
2022-09-09T19:45:17.842Z,0.68
2022-09-09T19:47:47.156Z,0.68
2022-09-09T19:50:16.720Z,0.88
2022-09-09T19:52:45.807Z,0.85
2022-09-09T19:55:15.045Z,0.90
2022-09-09T19:57:44.271Z,0.88
2022-09-09T20:00:15.763Z,0.80
2022-09-09T20:03:02.736Z,1.00
2022-09-09T20:05:34.692Z,1.25
2022-09-09T20:08:06.535Z,1.20
2022-09-09T20:10:35.794Z,0.80
2022-09-09T20:13:04.968Z,1.00
2022-09-09T20:15:35.571Z,0.73
2022-09-09T20:18:04.873Z,0.82
2022-09-09T20:20:36.720Z,0.93
2022-09-09T20:23:05.845Z,1.25
2022-09-09T20:25:40.418Z,1.23
2022-09-09T20:28:09.540Z,1.00
2022-09-09T20:30:40.180Z,1.35
2022-09-09T20:33:09.424Z,0.90
2022-09-09T20:35:38.587Z,1.00
2022-09-09T20:38:08.253Z,0.90
2022-09-09T20:40:38.503Z,1.00
2022-09-09T20:43:08.177Z,0.80
2022-09-09T20:45:38.452Z,1.00
2022-09-09T20:48:09.695Z,0.93
2022-09-09T20:50:39.446Z,1.00
2022-09-09T20:53:09.100Z,0.77
2022-09-09T20:55:38.199Z,0.95
2022-09-09T20:58:07.340Z,0.88
2022-09-09T21:00:36.548Z,0.73
2022-09-09T21:03:05.797Z,1.00
2022-09-09T21:05:36.285Z,0.90
2022-09-09T21:08:05.720Z,0.63
2022-09-09T21:10:35.329Z,0.70
2022-09-09T21:13:04.755Z,0.93
2022-09-09T21:15:34.085Z,0.80
2022-09-09T21:18:03.330Z,0.80
2022-09-09T21:20:32.582Z,0.80
2022-09-09T21:23:03.072Z,0.80
2022-09-09T21:25:32.283Z,0.70
2022-09-09T21:28:01.403Z,0.70
2022-09-09T21:30:38.146Z,0.63
2022-09-09T21:33:11.967Z,0.80
2022-09-09T21:35:43.919Z,0.73
2022-09-09T21:38:18.182Z,0.60
2022-09-09T21:40:50.385Z,0.75
2022-09-09T21:43:21.734Z,0.70
2022-09-09T21:45:52.265Z,0.60
2022-09-09T21:48:21.804Z,0.68
2022-09-09T21:50:51.711Z,1.00
2022-09-09T21:53:25.270Z,0.50
2022-09-09T21:55:55.913Z,0.65
2022-09-09T21:58:27.417Z,0.43
2022-09-09T22:00:58.020Z,0.60
2022-09-09T22:03:29.190Z,0.70
2022-09-09T22:05:59.623Z,0.70
2022-09-09T22:08:32.599Z,0.55
2022-09-09T22:11:09.490Z,0.55
2022-09-09T22:13:39.543Z,0.50
2022-09-09T22:16:11.526Z,0.50
2022-09-09T22:18:40.718Z,0.68
2022-09-09T22:21:12.007Z,0.70
2022-09-09T22:23:42.780Z,0.55
2022-09-09T22:26:12.535Z,0.50
2022-09-09T22:28:41.699Z,0.70
2022-09-09T22:31:10.889Z,0.80
2022-09-09T22:33:40.042Z,0.60
2022-09-09T22:36:09.765Z,0.40
2022-09-09T22:38:39.294Z,0.50
2022-09-09T22:41:10.096Z,0.50
2022-09-09T22:43:39.332Z,0.70
2022-09-09T22:46:08.987Z,0.65
2022-09-09T22:48:39.766Z,0.60
2022-09-09T22:51:10.939Z,0.43
2022-09-09T22:53:42.102Z,0.52
2022-09-09T22:56:17.277Z,0.43
2022-09-09T22:58:47.702Z,0.77
2022-09-09T23:01:19.620Z,0.40
2022-09-09T23:03:50.828Z,0.60
2022-09-09T23:06:23.274Z,0.57
2022-09-09T23:08:56.187Z,0.38
2022-09-09T23:11:31.161Z,0.55
2022-09-09T23:14:01.763Z,0.50
2022-09-09T23:16:34.018Z,0.55
2022-09-09T23:19:03.494Z,0.47
2022-09-09T23:21:33.406Z,0.50
2022-09-09T23:24:02.995Z,0.60
2022-09-09T23:26:33.616Z,0.70
2022-09-09T23:29:03.703Z,0.35
2022-09-09T23:31:38.017Z,0.52
2022-09-09T23:34:07.832Z,0.45
2022-09-09T23:36:37.794Z,0.60
2022-09-09T23:39:09.151Z,0.52
2022-09-09T23:41:40.386Z,0.50
2022-09-09T23:44:10.223Z,0.57
2022-09-09T23:46:39.401Z,0.52
2022-09-09T23:49:09.750Z,0.45
2022-09-09T23:51:39.703Z,0.43
2022-09-09T23:54:10.128Z,0.70
2022-09-09T23:56:44.695Z,0.50
2022-09-09T23:59:14.177Z,0.52
